»·PEaware :: N55NT KPDX-KEUG

N55NT :: KPDX-KEUG

FLIGHT INFORMATION

Flight Status: Arrived
Operator: Privately registered:
United States
More flights under this callsign
Pilot: Craig H. (6968)
Aircraft: SOCATA TBM-900
(TBM9)
More flights by this aircraft type
Origin: KPDX Portland Intl
United States
Destination: KEUG Mahlon Sweet
United States
More flights between these airports :: More routes between these airports
Route: BTG V23 EUG
File this flight plan on PilotEdge
Remarks:
Altitude:
(Current/Filed)
21,000ft
Speed:
(Current/Filed)
300kts
Departed: 07-Feb-20 12:25 PM
Arrived: 07-Feb-20 12:58 PM
Distance/Time
Traveled:
92nm/0:33
Distance/Time
To Go:
Arrived

Flight Plot

Page will automatically refresh every two minutes.

Flight plan parsing failed; only flown route is shown


Map Options




Map Legend


Flown Route
Filed Route
Departure Airport
Arrival Airport
Navaid (VOR, NDB)
Fix

Horizontal Profiles

Position Reports

Time Latitude Longitude Heading Altitude Ground
Speed
07-Feb-20 12:08 45.584824 -122.577446 298 25ft 0kts
07-Feb-20 12:09 45.584824 -122.577446 298 25ft 0kts
07-Feb-20 12:10 45.584824 -122.577446 298 25ft 0kts
07-Feb-20 12:11 45.584824 -122.577446 298 25ft 0kts
07-Feb-20 12:12 45.584824 -122.577446 298 25ft 0kts
07-Feb-20 12:13 45.584824 -122.577446 298 25ft 0kts
07-Feb-20 12:14 45.584824 -122.577446 298 25ft 0kts
07-Feb-20 12:15 45.584824 -122.577446 298 25ft 0kts
07-Feb-20 12:16 45.584824 -122.577446 298 25ft 0kts
07-Feb-20 12:17 45.584824 -122.577446 299 25ft 0kts
07-Feb-20 12:18 45.584832 -122.577467 298 25ft 2kts
07-Feb-20 12:19 45.585685 -122.576918 28 25ft 11kts
07-Feb-20 12:20 45.587625 -122.580427 298 25ft 13kts
07-Feb-20 12:21 45.589961 -122.586397 298 25ft 20kts
07-Feb-20 12:22 45.592832 -122.593802 298 25ft 19kts
07-Feb-20 12:23 45.594751 -122.597221 63 25ft 10kts
07-Feb-20 12:24 45.590366 -122.584311 124 190ft 100kts
07-Feb-20 12:25 45.568242 -122.548711 139 1754ft 135kts
07-Feb-20 12:26 45.538769 -122.509634 139 3455ft 151kts
07-Feb-20 12:27 45.508078 -122.466271 139 5374ft 161kts
07-Feb-20 12:28 45.477031 -122.471284 234 7210ft 134kts
07-Feb-20 12:29 45.475281 -122.519644 284 9171ft 139kts
07-Feb-20 12:30 45.465907 -122.562044 222 11069ft 142kts
07-Feb-20 12:31 45.433634 -122.594224 225 13054ft 142kts
07-Feb-20 12:32 45.401463 -122.626780 226 15068ft 143kts
07-Feb-20 12:33 45.369040 -122.659627 227 16949ft 145kts
07-Feb-20 12:34 45.336011 -122.693070 227 18846ft 148kts
07-Feb-20 12:35 45.302072 -122.727401 227 20648ft 153kts
07-Feb-20 12:36 45.262277 -122.767687 224 21265ft 207kts
07-Feb-20 12:37 45.205148 -122.806306 205 21241ft 250kts
07-Feb-20 12:38 45.136571 -122.833059 205 21207ft 260kts
07-Feb-20 12:39 45.061453 -122.862365 203 19757ft 289kts
07-Feb-20 12:40 44.983361 -122.892735 203 18264ft 291kts
07-Feb-20 12:41 44.906107 -122.924131 206 16756ft 284kts
07-Feb-20 12:42 44.832876 -122.956207 202 15255ft 276kts
07-Feb-20 12:43 44.758813 -122.982444 201 13753ft 273kts
07-Feb-20 12:44 44.685247 -123.008407 200 12254ft 273kts
07-Feb-20 12:45 44.613466 -123.040610 204 10690ft 272kts
07-Feb-20 12:46 44.542456 -123.079458 205 8892ft 269kts
07-Feb-20 12:47 44.482339 -123.114148 204 6935ft 214kts
07-Feb-20 12:49 44.429510 -123.145731 204 4922ft 201kts
07-Feb-20 12:50 44.377983 -123.177312 204 3427ft 206kts
07-Feb-20 12:51 44.328189 -123.208264 204 2971ft 184kts
07-Feb-20 12:52 44.280285 -123.221289 182 2974ft 168kts
07-Feb-20 12:53 44.237969 -123.220707 182 2379ft 137kts
07-Feb-20 12:54 44.204940 -123.220175 183 1769ft 93kts
07-Feb-20 12:55 44.180906 -123.219837 181 1290ft 85kts
07-Feb-20 12:56 44.157424 -123.219455 182 832ft 82kts
07-Feb-20 12:57 44.134501 -123.219116 180 356ft 73kts
07-Feb-20 12:58 44.121172 -123.218844 160 364ft 19kts
07-Feb-20 12:59 44.119825 -123.217149 133 364ft 7kts
07-Feb-20 13:00 44.117881 -123.215242 216 367ft 0kts
07-Feb-20 13:01 44.117881 -123.215242 216 367ft 0kts

Navigation Log

Ident Type
Flight plan parsing failed, navigation log unavailable